This is the latest recevied weather packets stored in our database for station/object AA7VG. If no packets are shown the sender has not sent any weather packets the latest 10 day(s).
| Time | Temp. | Humidity | Pressure | Rain* | Wind** | Luminosity | Snow |
|---|---|---|---|---|---|---|---|
| 1777545715 | 0° C | 80% | 1022.9 hPa | 0 mm | - | - | - |
| 1777545413 | 0° C | 79% | 1023.2 hPa | 0 mm | - | - | - |
| 1777545110 | 0.56° C | 79% | 1023.1 hPa | 0 mm | - | - | - |
| 1777544807 | 0.56° C | 79% | 1022.9 hPa | 0 mm | - | - | - |
| 1777544502 | 0.56° C | 78% | 1023.2 hPa | 0 mm | - | - | - |
| 1777544199 | 0.56° C | 79% | 1023.1 hPa | 0 mm | - | - | - |
| 1777543896 | 0.56° C | 79% | 1022.9 hPa | 0 mm | - | - | - |
| 1777543593 | 0.56° C | 79% | 1023.1 hPa | 0 mm | - | - | - |
| 1777543289 | 0.56° C | 78% | 1022.8 hPa | 0 mm | - | - | - |
| 1777542985 | 0.56° C | 78% | 1023.2 hPa | 0 mm | - | - | - |
| 1777542681 | 0.56° C | 79% | 1023.2 hPa | 0 mm | - | - | - |
| 1777542378 | 0.56° C | 78% | 1023.2 hPa | 0 mm | - | - | - |
| 1777542074 | 1.11° C | 76% | 1023.1 hPa | 0 mm | - | - | - |
| 1777541772 | 1.11° C | 76% | 1023.1 hPa | 0 mm | - | - | - |
| 1777541468 | 0.56° C | 78% | 1023.1 hPa | 0 mm | - | - | - |
| 1777541165 | 0.56° C | 79% | 1022.8 hPa | 0 mm | - | - | - |
| 1777540861 | 0.56° C | 79% | 1022.8 hPa | 0 mm | - | - | - |
| 1777540559 | 0.56° C | 78% | 1022.8 hPa | 0 mm | - | - | - |
| 1777540255 | 0.56° C | 77% | 1022.7 hPa | 0 mm | - | - | - |
| 1777539950 | 1.11° C | 75% | 1022.6 hPa | 0 mm | - | - | - |
| 1777539647 | 1.67° C | 75% | 1022.7 hPa | 0 mm | - | - | - |
| 1777539344 | 1.67° C | 74% | 1022.6 hPa | 0 mm | - | - | - |
| 1777539041 | 2.22° C | 71% | 1022.8 hPa | 0 mm | - | - | - |
| 1777538736 | 2.22° C | 70% | 1022.5 hPa | 0 mm | - | - | - |
| 1777538431 | 2.22° C | 70% | 1022.5 hPa | 0 mm | - | - | - |
* Rain latest hour (hover to see other rain measurements)
** Current wind speed in m/s (hover to see current wind gust speed)